Aviation



KPVE - Beech River Regional Airport
Distance from Parsons: NW 4mi, 6km
Updated: Mon, 26-Jun-2017 6:55am CDT
Clear
Clear
 Wind from calm
Wind: Calm
Temperature: 61°F , 16°C
Dew Point: 61°F , 16°C
Humidity: 100%
Barometer: 30.20 inHg , 1022.7 hPa
Clouds: Clear
Visibility: 9 miles , 14 km
2017/06/26 11:55 KPVE 261155Z AUTO 00000KT 9SM CLR 16/16 A3020 RMK A01
KSNH - Savannah Hardin Co. Airport
Distance from Parsons: S 34mi, 54km
Updated: Mon, 26-Jun-2017 6:55am CDT
Clear
Clear
 Wind from N
Wind: N 6 mph , 9 km/h, Gust: 12 mph , 19 km/h
Temperature: 59°F , 15°C
Dew Point: 59°F , 15°C
Humidity: 100%
Barometer: 30.21 inHg , 1023 hPa
Clouds: Clear
Visibility: 10 miles , 16 km
2017/06/26 11:55 KSNH 261155Z AUTO 36005G10KT 10SM CLR 15/15 A3021 RMK A01
 
KMKL - McKellar-Sipes Regional Airport
Distance from Parsons: W 44mi, 72km
Updated: Mon, 26-Jun-2017 6:53am CDT
Clear
Clear
 Wind from calm
Wind: Calm
Temperature: 64°F , 18°C
Dew Point: 61°F , 16°C
Humidity: 88%
Barometer: 30.20 inHg , 1022.7 hPa
Clouds: Clear
Visibility: 10 miles , 16 km
2017/06/26 11:53 KMKL 261153Z AUTO 00000KT 10SM CLR 18/16 A3020 RMK AO2 SLP223 T01780161 10178 20150 51012
KMSL - NW Alabama Regional Airport
Distance from Parsons: SE 78mi, 126km
Updated: Mon, 26-Jun-2017 6:53am CDT
Clear
Clear
 Wind from calm
Wind: Calm
Temperature: 61°F , 16°C
Dew Point: 55°F , 13°C
Humidity: 83%
Barometer: 30.22 inHg , 1023.4 hPa
Clouds: Clear
Visibility: 10 miles , 16 km
2017/06/26 11:53 KMSL 261153Z AUTO 00000KT 10SM CLR 16/13 A3022 RMK AO2 SLP227 T01560133 10161 20128 53012
 
KBNA - Nashville, TN, USA
Distance from Parsons: NE 97mi, 157km
Updated: Mon, 26-Jun-2017 6:53am CDT
Mostly cloudy
Mostly cloudy
 Wind from calm
Wind: Calm
Temperature: 66°F , 19°C
Dew Point: 57°F , 14°C
Humidity: 73%
Barometer: 30.20 inHg , 1022.7 hPa
Clouds: Mostly cloudy
Visibility: 10 miles , 16 km
Cloud details: Mostly cloudy 15000 ft
2017/06/26 11:53 KBNA 261153Z 00000KT 10SM BKN150 19/14 A3020 RMK AO2 SLP221 T01890144 10189 20161 51014
KMEM - Memphis, TN, USA
Distance from Parsons: W 108mi, 173km
Updated: Mon, 26-Jun-2017 6:54am CDT
Mostly cloudy
Mostly cloudy
 Wind from NW
Wind: NW 3 mph , 6 km/h
Temperature: 70°F , 21°C
Dew Point: 64°F , 18°C
Humidity: 83%
Barometer: 30.21 inHg , 1023 hPa
Clouds: Mostly cloudy
Visibility: 10 miles , 16 km
Cloud details: Few Clouds 5000 ft
Partly cloudy 9000 ft
Mostly cloudy 12000 ft
2017/06/26 11:54 KMEM 261154Z 31003KT 10SM FEW050 SCT090 BKN120 21/18 A3021 RMK AO2 RAB20E31 SLP225 VCSH P0000 60000 T02060178 10206 20178 53013
 
KTYS - Knoxville, TN, USA
Distance from Parsons: E 234mi, 377km
Updated: Mon, 26-Jun-2017 6:53am CDT
Mostly cloudy
Mostly cloudy
 Wind from calm
Wind: Calm
Temperature: 61°F , 16°C
Dew Point: 55°F , 13°C
Humidity: 83%
Barometer: 30.19 inHg , 1022.4 hPa
Clouds: Mostly cloudy
Visibility: 10 miles , 16 km
Cloud details: Few Clouds 1000 ft
Mostly cloudy 15000 ft
Mostly cloudy 25000 ft
2017/06/26 11:53 KTYS 261153Z 00000KT 10SM FEW010 BKN150 BKN250 16/13 A3019 RMK AO2 SLP216 T01560133 10167 20133 53008
KSTL - St. Louis, MO, USA
Distance from Parsons: NW 247mi, 398km
Updated: Mon, 26-Jun-2017 6:51am CDT
Few Clouds
Few Clouds
 Wind from W
Wind: W 7 mph , 11 km/h
Temperature: 64°F , 18°C
Dew Point: 50°F , 10°C
Humidity: 60%
Barometer: 30.22 inHg , 1023.4 hPa
Clouds: Few Clouds
Visibility: 10 miles , 16 km
Cloud details: Few Clouds 10000 ft
Few Clouds 25000 ft
2017/06/26 11:51 KSTL 261151Z 27006KT 10SM FEW100 FEW250 18/10 A3022 RMK AO2 SLP223 T01780100 10183 20144 51004

Refresh Page for latest data.